createdAt,value
2016-07-14T00:00:03.564Z,0
2016-07-14T00:01:03.485Z,0
2016-07-14T00:02:03.531Z,0
2016-07-14T00:03:03.417Z,0
2016-07-14T00:04:03.475Z,0
2016-07-14T00:05:03.448Z,0
2016-07-14T00:06:03.445Z,0
2016-07-14T00:07:03.437Z,0
2016-07-14T00:08:03.442Z,0
2016-07-14T00:09:03.462Z,0
2016-07-14T00:10:03.446Z,0
2016-07-14T00:11:03.481Z,0
2016-07-14T00:12:03.469Z,0
2016-07-14T00:13:03.440Z,0
2016-07-14T00:14:03.389Z,0
2016-07-14T00:15:03.474Z,0
2016-07-14T00:16:03.450Z,0
2016-07-14T00:17:03.505Z,0
2016-07-14T00:18:03.500Z,0
2016-07-14T00:19:03.476Z,0
2016-07-14T00:20:03.452Z,0
2016-07-14T00:21:03.453Z,0
2016-07-14T00:22:03.437Z,0
2016-07-14T00:23:03.462Z,0
2016-07-14T00:24:03.441Z,0
2016-07-14T00:25:03.482Z,0
2016-07-14T00:26:03.439Z,0
2016-07-14T00:27:03.428Z,0
2016-07-14T00:28:03.534Z,0
2016-07-14T00:29:03.468Z,0
2016-07-14T00:30:03.496Z,0
2016-07-14T00:31:03.529Z,0
2016-07-14T00:32:03.473Z,0
2016-07-14T00:33:03.440Z,0
2016-07-14T00:34:03.484Z,0
2016-07-14T00:35:03.481Z,0
2016-07-14T00:36:03.544Z,0
2016-07-14T00:37:03.503Z,0
2016-07-14T00:38:03.542Z,0
2016-07-14T00:39:03.505Z,0
2016-07-14T00:40:03.475Z,0
2016-07-14T00:41:03.724Z,0
2016-07-14T00:42:03.487Z,0
2016-07-14T00:43:03.566Z,0
2016-07-14T00:44:03.602Z,0
2016-07-14T00:45:03.493Z,0
2016-07-14T00:46:03.542Z,0
2016-07-14T00:47:03.522Z,0
2016-07-14T00:48:03.532Z,0
2016-07-14T00:49:03.504Z,0
2016-07-14T00:50:03.538Z,0
2016-07-14T00:51:03.514Z,0
2016-07-14T00:52:03.484Z,0
2016-07-14T00:53:03.518Z,0
2016-07-14T00:54:03.502Z,0
2016-07-14T00:55:03.516Z,0
2016-07-14T00:56:03.600Z,0
2016-07-14T00:57:03.489Z,0
2016-07-14T00:58:03.508Z,0
2016-07-14T00:59:03.502Z,0
2016-07-14T01:00:03.542Z,0
2016-07-14T01:01:03.516Z,0
2016-07-14T01:02:03.485Z,0
2016-07-14T01:03:03.532Z,0
2016-07-14T01:04:03.562Z,0
2016-07-14T01:05:03.568Z,0
2016-07-14T01:06:03.595Z,0
2016-07-14T01:07:03.586Z,0
2016-07-14T01:08:03.504Z,0
2016-07-14T01:09:03.538Z,0
2016-07-14T01:10:03.495Z,0
2016-07-14T01:11:03.583Z,0
2016-07-14T01:12:03.541Z,0
2016-07-14T01:13:03.511Z,0
2016-07-14T01:14:03.481Z,0
2016-07-14T01:15:03.505Z,0
2016-07-14T01:16:03.495Z,0
2016-07-14T01:17:03.511Z,0
2016-07-14T01:18:03.544Z,0
2016-07-14T01:19:03.524Z,0
2016-07-14T01:20:03.533Z,0
2016-07-14T01:21:03.517Z,0
2016-07-14T01:22:03.503Z,0
2016-07-14T01:23:03.517Z,0
2016-07-14T01:24:03.572Z,0
2016-07-14T01:25:03.568Z,0
2016-07-14T01:26:03.533Z,0
2016-07-14T01:27:03.496Z,0
2016-07-14T01:28:03.535Z,0
2016-07-14T01:29:03.545Z,0
2016-07-14T01:30:03.655Z,0
2016-07-14T01:31:03.559Z,0
2016-07-14T01:32:03.534Z,0
2016-07-14T01:33:03.491Z,0
2016-07-14T01:34:03.628Z,0
2016-07-14T01:35:03.553Z,0
2016-07-14T01:36:03.501Z,0
2016-07-14T01:37:03.504Z,0
2016-07-14T01:38:03.502Z,0
2016-07-14T01:39:03.526Z,0
2016-07-14T01:40:03.474Z,0
2016-07-14T01:41:03.552Z,0
2016-07-14T01:42:03.498Z,0
2016-07-14T01:43:03.563Z,0
2016-07-14T01:44:03.502Z,0
2016-07-14T01:45:03.610Z,0
2016-07-14T01:46:03.574Z,0
2016-07-14T01:47:03.599Z,0
2016-07-14T01:48:04.347Z,0
2016-07-14T01:49:03.871Z,0
2016-07-14T01:50:03.675Z,0
2016-07-14T01:51:04.215Z,0
2016-07-14T01:52:03.894Z,0
2016-07-14T01:53:03.695Z,0
2016-07-14T01:54:03.765Z,0
2016-07-14T01:55:03.785Z,0
2016-07-14T01:56:04.785Z,0
2016-07-14T01:57:04.000Z,0
2016-07-14T01:58:03.821Z,0
2016-07-14T01:59:03.688Z,0
2016-07-14T02:00:03.692Z,0
2016-07-14T02:01:03.683Z,0
2016-07-14T02:02:04.114Z,0
2016-07-14T02:03:03.510Z,0
2016-07-14T02:04:03.542Z,0
2016-07-14T02:05:03.612Z,0
2016-07-14T02:06:03.607Z,0
2016-07-14T02:07:03.572Z,0
2016-07-14T02:08:03.604Z,0
2016-07-14T02:09:03.571Z,0
2016-07-14T02:10:03.595Z,0
2016-07-14T02:11:03.625Z,0
2016-07-14T02:12:03.630Z,0
2016-07-14T02:13:03.643Z,0
2016-07-14T02:14:03.626Z,0
2016-07-14T02:15:03.629Z,0
2016-07-14T02:16:03.619Z,0
2016-07-14T02:17:03.583Z,0
2016-07-14T02:18:03.641Z,0
2016-07-14T02:19:03.725Z,0
2016-07-14T02:20:03.607Z,0
2016-07-14T02:21:03.626Z,0
2016-07-14T02:22:04.138Z,0
2016-07-14T02:23:03.634Z,0
2016-07-14T02:24:03.579Z,0
2016-07-14T02:25:03.586Z,0
2016-07-14T02:26:03.549Z,0
2016-07-14T02:27:03.603Z,0
2016-07-14T02:28:03.632Z,0
2016-07-14T02:29:03.644Z,0
2016-07-14T02:30:03.565Z,0
2016-07-14T02:31:03.543Z,0
2016-07-14T02:32:03.538Z,0
2016-07-14T02:33:03.596Z,0
2016-07-14T02:34:03.655Z,0
2016-07-14T02:35:03.625Z,0
2016-07-14T02:36:03.641Z,0
2016-07-14T02:37:03.617Z,0
2016-07-14T02:38:03.655Z,0
2016-07-14T02:39:03.599Z,0
2016-07-14T02:40:03.571Z,0
2016-07-14T02:41:03.599Z,0
2016-07-14T02:42:03.579Z,0
2016-07-14T02:43:03.620Z,0
2016-07-14T02:44:03.641Z,0
2016-07-14T02:45:03.597Z,0
2016-07-14T02:46:03.643Z,0
2016-07-14T02:47:03.597Z,0
2016-07-14T02:48:03.573Z,0
2016-07-14T02:49:03.569Z,0
2016-07-14T02:50:03.573Z,0
2016-07-14T02:51:03.628Z,0
2016-07-14T02:52:03.658Z,0
2016-07-14T02:53:03.572Z,0
2016-07-14T02:54:03.751Z,0
2016-07-14T02:55:03.632Z,0
2016-07-14T02:56:03.638Z,0
2016-07-14T02:57:03.644Z,0
2016-07-14T02:58:03.605Z,0
2016-07-14T02:59:03.597Z,0
2016-07-14T03:00:03.615Z,0
2016-07-14T03:01:03.608Z,0
2016-07-14T03:02:03.680Z,0
2016-07-14T03:03:03.576Z,0
2016-07-14T03:04:03.538Z,0
2016-07-14T03:05:03.587Z,0
2016-07-14T03:06:03.600Z,0
2016-07-14T03:07:03.656Z,0
2016-07-14T03:08:03.591Z,0
2016-07-14T03:09:03.578Z,0
2016-07-14T03:10:03.567Z,0
2016-07-14T03:11:03.585Z,0
2016-07-14T03:12:03.586Z,0
2016-07-14T03:13:03.581Z,0
2016-07-14T03:14:03.589Z,0
2016-07-14T03:15:03.575Z,0
2016-07-14T03:16:03.608Z,0
2016-07-14T03:17:03.668Z,0
2016-07-14T03:18:03.606Z,0
2016-07-14T03:19:03.565Z,0
2016-07-14T03:20:03.624Z,5
2016-07-14T03:21:03.601Z,5
2016-07-14T03:22:03.574Z,5
2016-07-14T03:23:03.569Z,5
2016-07-14T03:24:03.620Z,5
2016-07-14T03:25:03.570Z,5
2016-07-14T03:26:03.601Z,5
2016-07-14T03:27:03.601Z,5
2016-07-14T03:28:03.632Z,5
2016-07-14T03:29:03.594Z,5
2016-07-14T03:30:03.624Z,10
2016-07-14T03:31:03.605Z,10
2016-07-14T03:32:03.684Z,10
2016-07-14T03:33:03.637Z,10
2016-07-14T03:34:03.700Z,10
2016-07-14T03:35:03.652Z,10
2016-07-14T03:36:03.602Z,10
2016-07-14T03:37:03.696Z,10
2016-07-14T03:38:03.615Z,15
2016-07-14T03:39:03.634Z,15
2016-07-14T03:40:03.630Z,15
2016-07-14T03:41:03.670Z,15
2016-07-14T03:42:03.661Z,15
2016-07-14T03:43:03.671Z,15
2016-07-14T03:44:03.640Z,20
2016-07-14T03:45:03.658Z,20
2016-07-14T03:46:03.699Z,20
2016-07-14T03:47:03.752Z,20
2016-07-14T03:48:03.664Z,20
2016-07-14T03:49:03.584Z,25
2016-07-14T03:50:03.661Z,25
2016-07-14T03:51:03.803Z,25
2016-07-14T03:52:03.632Z,25
2016-07-14T03:53:03.694Z,30
2016-07-14T03:54:03.672Z,30
2016-07-14T03:55:03.981Z,30
2016-07-14T03:56:03.629Z,35
2016-07-14T03:57:03.626Z,35
2016-07-14T03:58:04.196Z,35
2016-07-14T03:59:03.816Z,40
2016-07-14T04:00:03.760Z,40
2016-07-14T04:01:03.617Z,40
2016-07-14T04:02:03.634Z,45
2016-07-14T04:03:03.647Z,45
2016-07-14T04:04:03.642Z,45
2016-07-14T04:05:03.632Z,45
2016-07-14T04:06:03.701Z,50
2016-07-14T04:07:03.656Z,50
2016-07-14T04:08:03.628Z,50
2016-07-14T04:09:03.618Z,50
2016-07-14T04:10:03.690Z,55
2016-07-14T04:11:03.699Z,60
2016-07-14T04:12:03.640Z,55
2016-07-14T04:13:03.634Z,60
2016-07-14T04:14:03.658Z,60
2016-07-14T04:15:03.634Z,60
2016-07-14T04:16:03.620Z,65
2016-07-14T04:17:03.658Z,65
2016-07-14T04:18:03.618Z,65
2016-07-14T04:19:03.672Z,65
2016-07-14T04:20:03.694Z,65
2016-07-14T04:21:03.640Z,70
2016-07-14T04:22:03.658Z,70
2016-07-14T04:23:03.636Z,70
2016-07-14T04:24:03.703Z,70
2016-07-14T04:25:03.652Z,70
2016-07-14T04:26:03.643Z,75
2016-07-14T04:27:03.699Z,75
2016-07-14T04:28:03.696Z,75
2016-07-14T04:29:03.708Z,75
2016-07-14T04:30:03.635Z,75
2016-07-14T04:31:03.606Z,80
2016-07-14T04:32:03.620Z,80
2016-07-14T04:33:03.614Z,80
2016-07-14T04:34:03.640Z,80
2016-07-14T04:35:03.667Z,85
2016-07-14T04:36:03.743Z,85
2016-07-14T04:37:03.728Z,85
2016-07-14T04:38:03.693Z,85
2016-07-14T04:39:03.636Z,85
2016-07-14T04:40:03.667Z,90
2016-07-14T04:41:03.731Z,90
2016-07-14T04:42:03.830Z,90
2016-07-14T04:43:03.731Z,90
2016-07-14T04:44:03.676Z,95
2016-07-14T04:45:03.767Z,95
2016-07-14T04:46:03.707Z,95
2016-07-14T04:47:03.756Z,95
2016-07-14T04:48:03.738Z,100
2016-07-14T04:49:03.738Z,100
2016-07-14T04:50:03.702Z,100
2016-07-14T04:51:03.725Z,100
2016-07-14T04:52:03.706Z,105
2016-07-14T04:53:03.697Z,105
2016-07-14T04:54:03.686Z,105
2016-07-14T04:55:03.722Z,105
2016-07-14T04:56:03.684Z,110
2016-07-14T04:57:03.699Z,110
2016-07-14T04:58:03.757Z,110
2016-07-14T04:59:03.654Z,110
2016-07-14T05:00:03.646Z,110
2016-07-14T05:01:03.668Z,115
2016-07-14T05:02:03.708Z,115
2016-07-14T05:03:03.792Z,110
2016-07-14T05:04:03.734Z,110
2016-07-14T05:05:03.695Z,115
2016-07-14T05:06:03.717Z,115
2016-07-14T05:07:03.726Z,115
2016-07-14T05:08:04.754Z,115
2016-07-14T05:09:05.130Z,120
2016-07-14T05:10:03.729Z,120
2016-07-14T05:11:03.823Z,120
2016-07-14T05:12:03.696Z,125
2016-07-14T05:13:03.702Z,125
2016-07-14T05:14:03.713Z,125
2016-07-14T05:15:03.790Z,125
2016-07-14T05:16:03.918Z,130
2016-07-14T05:17:03.878Z,130
2016-07-14T05:18:03.811Z,130
2016-07-14T05:19:03.743Z,135
2016-07-14T05:20:03.958Z,145
2016-07-14T05:21:04.028Z,160
2016-07-14T05:22:03.916Z,195
2016-07-14T05:23:03.887Z,215
2016-07-14T05:24:03.745Z,225
2016-07-14T05:25:04.245Z,220
2016-07-14T05:26:04.783Z,195
2016-07-14T05:27:03.761Z,180
2016-07-14T05:28:03.800Z,180
2016-07-14T05:29:04.497Z,190
2016-07-14T05:30:03.801Z,185
2016-07-14T05:31:03.702Z,185
2016-07-14T05:32:03.695Z,195
2016-07-14T05:33:03.766Z,190
2016-07-14T05:34:03.734Z,190
2016-07-14T05:35:03.687Z,205
2016-07-14T05:36:04.299Z,230
2016-07-14T05:37:03.907Z,235
2016-07-14T05:38:04.420Z,240
2016-07-14T05:39:03.701Z,235
2016-07-14T05:40:03.808Z,230
2016-07-14T05:41:03.741Z,230
2016-07-14T05:42:03.673Z,220
2016-07-14T05:43:03.729Z,195
2016-07-14T05:44:03.719Z,175
2016-07-14T05:45:03.800Z,180
2016-07-14T05:46:03.776Z,160
2016-07-14T05:47:03.839Z,155
2016-07-14T05:48:03.772Z,160
2016-07-14T05:49:03.756Z,155
2016-07-14T05:50:03.833Z,155
2016-07-14T05:51:04.431Z,155
2016-07-14T05:52:03.848Z,155
2016-07-14T05:53:03.942Z,155
2016-07-14T05:54:03.832Z,155
2016-07-14T05:55:04.001Z,155
2016-07-14T05:56:04.037Z,155
2016-07-14T05:57:04.365Z,155
2016-07-14T05:58:04.021Z,160
2016-07-14T05:59:04.423Z,155
2016-07-14T06:00:03.771Z,155
2016-07-14T06:01:04.401Z,155
2016-07-14T06:02:04.781Z,160
2016-07-14T06:03:04.134Z,155
2016-07-14T06:04:04.064Z,155
2016-07-14T06:05:04.397Z,155
2016-07-14T06:06:03.760Z,160
2016-07-14T06:07:04.435Z,160
2016-07-14T06:08:03.769Z,160
2016-07-14T06:09:04.288Z,160
2016-07-14T06:10:03.800Z,165
2016-07-14T06:11:03.820Z,165
2016-07-14T06:12:03.732Z,165
2016-07-14T06:13:03.699Z,165
2016-07-14T06:14:03.803Z,165
2016-07-14T06:15:03.741Z,165
2016-07-14T06:16:03.807Z,170
2016-07-14T06:17:04.303Z,170
2016-07-14T06:18:03.729Z,175
2016-07-14T06:19:03.735Z,170
2016-07-14T06:20:03.799Z,170
2016-07-14T06:21:03.780Z,175
2016-07-14T06:22:03.740Z,180
2016-07-14T06:23:03.803Z,190
2016-07-14T06:24:03.735Z,200
2016-07-14T06:25:04.462Z,220
2016-07-14T06:26:03.793Z,245
2016-07-14T06:27:03.713Z,260
2016-07-14T06:28:03.693Z,275
2016-07-14T06:29:03.776Z,300
2016-07-14T06:30:03.738Z,345
2016-07-14T06:31:04.074Z,295
2016-07-14T06:32:03.836Z,340
2016-07-14T06:33:03.762Z,380
2016-07-14T06:34:04.781Z,420
2016-07-14T06:35:03.808Z,465
2016-07-14T06:36:03.851Z,465
2016-07-14T06:37:03.849Z,470
2016-07-14T06:38:03.796Z,480
2016-07-14T06:39:03.860Z,515
2016-07-14T06:40:04.421Z,405
2016-07-14T06:41:03.825Z,360
2016-07-14T06:42:03.803Z,375
2016-07-14T06:43:04.422Z,390
2016-07-14T06:44:03.823Z,410
2016-07-14T06:45:04.054Z,410
2016-07-14T06:46:03.845Z,440
2016-07-14T06:47:03.850Z,635
2016-07-14T06:48:03.974Z,420
2016-07-14T06:49:03.731Z,415
2016-07-14T06:50:03.754Z,400
2016-07-14T06:51:03.921Z,405
2016-07-14T06:52:03.749Z,380
2016-07-14T06:53:03.767Z,380
2016-07-14T06:54:03.793Z,405
2016-07-14T06:55:03.831Z,400
2016-07-14T06:56:03.853Z,415
2016-07-14T06:57:03.795Z,425
2016-07-14T06:58:03.834Z,485
2016-07-14T06:59:03.843Z,480
2016-07-14T07:00:03.833Z,375
2016-07-14T07:01:03.829Z,390
2016-07-14T07:02:03.858Z,385
2016-07-14T07:03:03.769Z,380
2016-07-14T07:04:03.787Z,1020
2016-07-14T07:05:03.880Z,690
2016-07-14T07:06:03.805Z,705
2016-07-14T07:07:03.809Z,425
2016-07-14T07:08:03.786Z,590
2016-07-14T07:09:04.019Z,750
2016-07-14T07:10:03.798Z,1035
2016-07-14T07:11:03.841Z,1260
2016-07-14T07:12:03.836Z,1375
2016-07-14T07:13:03.821Z,1435
2016-07-14T07:14:03.866Z,1450
2016-07-14T07:17:14.798Z,1090
2016-07-14T07:17:26.550Z,1345
2016-07-14T07:18:26.547Z,1365
2016-07-14T07:19:26.744Z,520
2016-07-14T07:20:27.254Z,1320
2016-07-14T07:21:27.008Z,1345
2016-07-14T07:22:27.599Z,1375
2016-07-14T07:23:26.549Z,1370
2016-07-14T07:24:26.954Z,1255
2016-07-14T07:25:27.090Z,1265
2016-07-14T07:26:26.661Z,1260
2016-07-14T07:27:26.747Z,1305
2016-07-14T07:28:26.805Z,1320
2016-07-14T07:29:27.011Z,1400
2016-07-14T07:30:27.645Z,1460
2016-07-14T07:31:26.505Z,1505
2016-07-14T07:32:26.480Z,285
2016-07-14T07:33:26.551Z,1490
2016-07-14T07:34:26.555Z,295
2016-07-14T07:35:26.577Z,1070
2016-07-14T07:36:26.589Z,380
2016-07-14T07:37:26.571Z,695
2016-07-14T07:38:26.549Z,1525
2016-07-14T07:39:26.543Z,1550
2016-07-14T07:40:26.926Z,1565
2016-07-14T07:41:26.636Z,1605
2016-07-14T07:42:26.570Z,1215
2016-07-14T07:43:26.553Z,1585
2016-07-14T07:44:26.536Z,1585
2016-07-14T07:45:26.570Z,1580
2016-07-14T07:46:26.507Z,1570
2016-07-14T07:47:26.528Z,280
2016-07-14T07:48:26.855Z,1650
2016-07-14T07:49:27.390Z,1320
2016-07-14T07:50:26.854Z,1720
2016-07-14T07:51:26.880Z,1725
2016-07-14T07:52:26.656Z,1745
2016-07-14T07:53:26.598Z,1775
2016-07-14T07:54:26.662Z,1405
2016-07-14T07:55:26.641Z,585
2016-07-14T07:56:26.781Z,640
2016-07-14T07:57:26.546Z,490
2016-07-14T07:58:26.506Z,450
2016-07-14T07:59:26.518Z,420
2016-07-14T08:00:26.566Z,350
2016-07-14T08:01:26.553Z,350
2016-07-14T08:02:26.586Z,280
2016-07-14T08:03:26.623Z,280
2016-07-14T08:04:26.610Z,315
2016-07-14T08:05:26.638Z,360
2016-07-14T08:06:26.629Z,360
2016-07-14T08:07:26.664Z,320
2016-07-14T08:08:26.660Z,330
2016-07-14T08:09:26.666Z,320
2016-07-14T08:10:26.609Z,310
2016-07-14T08:11:26.577Z,290
2016-07-14T08:12:26.583Z,320
2016-07-14T08:13:26.539Z,360
2016-07-14T08:14:26.597Z,400
2016-07-14T08:15:26.558Z,425
2016-07-14T08:16:26.613Z,435
2016-07-14T08:17:26.623Z,440
2016-07-14T08:18:26.589Z,440
2016-07-14T08:19:26.638Z,430
2016-07-14T08:20:26.612Z,430
2016-07-14T08:21:26.529Z,455
2016-07-14T08:22:27.107Z,455
2016-07-14T08:23:26.559Z,480
2016-07-14T08:24:27.229Z,475
2016-07-14T08:25:26.573Z,485
2016-07-14T08:26:26.693Z,485
2016-07-14T08:27:26.672Z,450
2016-07-14T08:28:26.582Z,410
2016-07-14T08:29:26.730Z,320
2016-07-14T08:30:26.638Z,325
2016-07-14T08:31:26.639Z,340
2016-07-14T08:32:26.620Z,370
2016-07-14T08:33:26.630Z,375
2016-07-14T08:34:26.597Z,380
2016-07-14T08:35:26.582Z,395
2016-07-14T08:36:26.606Z,400
2016-07-14T08:37:26.622Z,385
2016-07-14T08:38:26.626Z,345
2016-07-14T08:39:26.588Z,310
2016-07-14T08:40:26.635Z,285
2016-07-14T08:41:26.696Z,275
2016-07-14T08:42:26.610Z,275
2016-07-14T08:43:26.569Z,290
2016-07-14T08:44:26.591Z,320
2016-07-14T08:45:26.598Z,355
2016-07-14T08:46:26.710Z,385
2016-07-14T08:47:26.600Z,410
2016-07-14T08:48:26.642Z,455
2016-07-14T08:49:26.752Z,485
2016-07-14T08:50:26.808Z,475
2016-07-14T08:51:26.666Z,475
2016-07-14T08:52:26.727Z,490
2016-07-14T08:53:26.694Z,490
2016-07-14T08:54:26.726Z,465
2016-07-14T08:55:26.681Z,450
2016-07-14T08:56:26.599Z,470
2016-07-14T08:57:26.653Z,480
2016-07-14T08:58:26.600Z,490
2016-07-14T08:59:26.791Z,450
2016-07-14T09:00:26.567Z,410
2016-07-14T09:01:26.556Z,380
2016-07-14T09:02:26.613Z,350
2016-07-14T09:03:26.586Z,345
2016-07-14T09:04:26.579Z,355
2016-07-14T09:05:26.737Z,385
2016-07-14T09:06:26.670Z,445
2016-07-14T09:07:26.649Z,515
2016-07-14T09:08:26.642Z,515
2016-07-14T09:09:26.625Z,500
2016-07-14T09:10:26.607Z,490
2016-07-14T09:11:26.574Z,465
2016-07-14T09:12:26.572Z,450
2016-07-14T09:13:26.630Z,445
2016-07-14T09:14:26.668Z,440
2016-07-14T09:15:26.921Z,425
2016-07-14T09:16:26.852Z,420
2016-07-14T09:17:26.885Z,415
2016-07-14T09:18:26.669Z,420
2016-07-14T09:19:26.815Z,395
2016-07-14T09:20:27.305Z,370
2016-07-14T09:21:27.716Z,360
2016-07-14T09:22:26.819Z,390
2016-07-14T09:23:26.946Z,455
2016-07-14T09:24:27.595Z,505
2016-07-14T09:25:26.876Z,500
2016-07-14T09:26:26.824Z,470
2016-07-14T09:27:26.875Z,460
2016-07-14T09:28:26.814Z,450
2016-07-14T09:29:26.950Z,450
2016-07-14T09:30:28.616Z,435
2016-07-14T09:31:26.756Z,445
2016-07-14T09:32:27.042Z,455
2016-07-14T09:33:26.970Z,475
2016-07-14T09:34:27.073Z,480
2016-07-14T09:35:26.713Z,520
2016-07-14T09:36:26.763Z,560
2016-07-14T09:37:27.167Z,570
2016-07-14T09:38:26.731Z,575
2016-07-14T09:39:27.623Z,570
2016-07-14T09:40:26.708Z,580
2016-07-14T09:41:27.507Z,565
2016-07-14T09:42:26.732Z,545
2016-07-14T09:43:27.518Z,510
2016-07-14T09:44:27.078Z,445
2016-07-14T09:45:26.985Z,380
2016-07-14T09:46:26.806Z,310
2016-07-14T09:47:28.084Z,280
2016-07-14T09:48:27.620Z,280
2016-07-14T09:49:26.903Z,260
2016-07-14T09:50:26.815Z,270
2016-07-14T09:51:26.906Z,275
2016-07-14T09:52:26.888Z,270
2016-07-14T09:53:26.751Z,270
2016-07-14T09:54:26.768Z,295
2016-07-14T09:55:26.780Z,320
2016-07-14T09:56:26.941Z,305
2016-07-14T09:57:26.770Z,295
2016-07-14T09:58:26.763Z,305
2016-07-14T09:59:26.753Z,305
2016-07-14T10:00:26.828Z,315
2016-07-14T10:01:26.884Z,340
2016-07-14T10:02:26.889Z,365
2016-07-14T10:03:26.826Z,400
2016-07-14T10:04:26.839Z,415
2016-07-14T10:05:26.799Z,400
2016-07-14T10:06:26.770Z,375
2016-07-14T10:07:26.788Z,370
2016-07-14T10:08:26.869Z,335
2016-07-14T10:09:26.812Z,310
2016-07-14T10:10:26.744Z,300
2016-07-14T10:11:27.269Z,300
2016-07-14T10:12:26.879Z,305
2016-07-14T10:13:26.861Z,290
2016-07-14T10:14:28.306Z,290
2016-07-14T10:15:26.798Z,305
2016-07-14T10:16:26.779Z,340
2016-07-14T10:17:26.770Z,400
2016-07-14T10:18:26.757Z,450
2016-07-14T10:19:26.786Z,490
2016-07-14T10:20:27.505Z,515
2016-07-14T10:21:26.770Z,535
2016-07-14T10:22:26.718Z,540
2016-07-14T10:23:26.763Z,540
2016-07-14T10:24:26.784Z,535
2016-07-14T10:25:26.792Z,520
2016-07-14T10:26:26.900Z,485
2016-07-14T10:27:26.794Z,455
2016-07-14T10:28:26.827Z,390
2016-07-14T10:29:26.750Z,345
2016-07-14T10:30:26.820Z,280
2016-07-14T10:31:27.058Z,195
2016-07-14T10:32:26.698Z,120
2016-07-14T10:33:26.745Z,95
2016-07-14T10:34:26.768Z,90
2016-07-14T10:35:26.712Z,95
2016-07-14T10:36:26.751Z,95
2016-07-14T10:37:26.788Z,100
2016-07-14T10:38:26.719Z,105
2016-07-14T10:39:26.741Z,110
2016-07-14T10:40:26.883Z,120
2016-07-14T10:41:26.711Z,135
2016-07-14T10:42:26.706Z,155
2016-07-14T10:43:26.789Z,180
2016-07-14T10:44:26.719Z,210
2016-07-14T10:45:26.896Z,225
2016-07-14T10:46:26.891Z,250
2016-07-14T10:47:26.818Z,265
2016-07-14T10:48:27.429Z,295
2016-07-14T10:49:27.365Z,325
2016-07-14T10:50:26.859Z,340
2016-07-14T10:51:26.753Z,355
2016-07-14T10:52:26.758Z,355
2016-07-14T10:53:26.829Z,350
2016-07-14T10:54:26.905Z,355
2016-07-14T10:55:26.847Z,370
2016-07-14T10:56:27.555Z,395
2016-07-14T10:57:26.787Z,430
2016-07-14T10:58:26.861Z,450
2016-07-14T10:59:26.803Z,460
2016-07-14T11:00:26.921Z,465
2016-07-14T11:01:26.731Z,470
2016-07-14T11:02:26.818Z,470
2016-07-14T11:03:26.896Z,475
2016-07-14T11:04:27.036Z,475
2016-07-14T11:05:26.782Z,465
2016-07-14T11:06:26.788Z,450
2016-07-14T11:07:26.767Z,445
2016-07-14T11:08:26.768Z,420
2016-07-14T11:09:26.732Z,415
2016-07-14T11:10:26.738Z,415
2016-07-14T11:11:26.719Z,420
2016-07-14T11:12:26.698Z,390
2016-07-14T11:14:15.662Z,345
2016-07-14T11:14:27.771Z,340
2016-07-14T11:15:28.476Z,340
2016-07-14T11:16:27.617Z,305
2016-07-14T11:17:27.662Z,265
2016-07-14T11:18:27.587Z,235
2016-07-14T11:19:27.596Z,220
2016-07-14T11:20:27.364Z,210
2016-07-14T11:21:27.383Z,200
2016-07-14T11:22:27.492Z,195
2016-07-14T11:23:27.456Z,185
2016-07-14T11:24:27.478Z,185
2016-07-14T11:25:27.440Z,185
2016-07-14T11:26:27.403Z,190
2016-07-14T11:27:27.396Z,195
2016-07-14T11:28:27.427Z,205
2016-07-14T11:29:27.362Z,215
2016-07-14T11:30:27.419Z,230
2016-07-14T11:31:27.427Z,265
2016-07-14T11:32:27.439Z,305
2016-07-14T11:33:27.390Z,335
2016-07-14T11:34:27.409Z,340
2016-07-14T11:35:27.404Z,325
2016-07-14T11:36:27.485Z,335
2016-07-14T11:37:27.433Z,365
2016-07-14T11:38:27.422Z,390
2016-07-14T11:39:27.411Z,390
2016-07-14T11:40:27.618Z,415
2016-07-14T11:41:27.415Z,435
2016-07-14T11:42:27.440Z,450
2016-07-14T11:43:27.578Z,385
2016-07-14T11:44:27.511Z,325
2016-07-14T11:45:27.426Z,300
2016-07-14T11:46:28.009Z,305
2016-07-14T11:47:27.492Z,335
2016-07-14T11:48:27.483Z,380
2016-07-14T11:49:27.390Z,425
2016-07-14T11:50:27.996Z,450
2016-07-14T11:51:27.457Z,475
2016-07-14T11:52:27.426Z,495
2016-07-14T11:53:27.509Z,480
2016-07-14T11:54:27.429Z,460
2016-07-14T11:55:27.430Z,480
2016-07-14T11:56:27.572Z,475
2016-07-14T11:57:27.442Z,485
2016-07-14T11:58:28.466Z,485
2016-07-14T11:59:27.444Z,455
2016-07-14T12:00:27.480Z,440
2016-07-14T12:01:27.411Z,430
2016-07-14T12:02:27.407Z,430
2016-07-14T12:03:28.498Z,440
2016-07-14T12:04:27.406Z,450
2016-07-14T12:05:27.541Z,450
2016-07-14T12:06:27.508Z,445
2016-07-14T12:08:27.797Z,455
2016-07-14T12:09:27.122Z,450
2016-07-14T12:10:27.449Z,440
2016-07-14T12:11:27.407Z,425
2016-07-14T12:12:27.391Z,405
2016-07-14T12:13:27.396Z,395
2016-07-14T12:14:27.437Z,380
2016-07-14T12:15:27.529Z,365
2016-07-14T12:16:27.602Z,350
2016-07-14T12:17:28.311Z,330
2016-07-14T12:18:27.560Z,305
2016-07-14T12:19:27.724Z,295
2016-07-14T12:20:27.651Z,275
2016-07-14T12:21:27.501Z,260
2016-07-14T12:22:27.410Z,260
2016-07-14T12:23:27.408Z,245
2016-07-14T12:24:27.482Z,245
2016-07-14T12:25:27.559Z,240
2016-07-14T12:26:28.179Z,245
2016-07-14T12:27:27.427Z,260
2016-07-14T12:28:27.563Z,250
2016-07-14T12:29:27.440Z,235
2016-07-14T12:30:27.581Z,220
2016-07-14T12:31:27.513Z,220
2016-07-14T12:32:27.471Z,225
2016-07-14T12:33:27.565Z,225
2016-07-14T12:34:27.712Z,225
2016-07-14T12:35:27.611Z,225
2016-07-14T12:36:27.454Z,215
2016-07-14T12:37:27.470Z,225
2016-07-14T12:38:27.603Z,220
2016-07-14T12:39:27.562Z,230
2016-07-14T12:40:27.704Z,225
2016-07-14T12:41:27.478Z,230
2016-07-14T12:42:27.513Z,230
2016-07-14T12:43:28.135Z,235
2016-07-14T12:44:28.179Z,250
2016-07-14T12:45:27.855Z,260
2016-07-14T12:46:27.465Z,275
2016-07-14T12:47:28.172Z,295
2016-07-14T12:48:27.761Z,325
2016-07-14T12:49:27.821Z,365
2016-07-14T12:50:28.084Z,385
2016-07-14T12:51:27.541Z,390
2016-07-14T12:52:27.470Z,385
2016-07-14T12:53:27.561Z,385
2016-07-14T12:54:27.699Z,390
2016-07-14T12:55:27.459Z,395
2016-07-14T12:56:27.566Z,400
2016-07-14T12:57:27.526Z,395
2016-07-14T12:58:27.663Z,385
2016-07-14T12:59:28.121Z,375
2016-07-14T13:00:27.461Z,365
2016-07-14T13:01:27.573Z,365
2016-07-14T13:02:27.478Z,355
2016-07-14T13:03:27.496Z,345
2016-07-14T13:04:27.529Z,340
2016-07-14T13:05:27.596Z,330
2016-07-14T13:06:27.749Z,315
2016-07-14T13:07:27.522Z,295
2016-07-14T13:08:27.534Z,285
2016-07-14T13:09:27.550Z,280
2016-07-14T13:10:27.502Z,280
2016-07-14T13:11:27.450Z,280
2016-07-14T13:12:27.442Z,290
2016-07-14T13:13:27.475Z,295
2016-07-14T13:14:27.496Z,315
2016-07-14T13:15:27.503Z,305
2016-07-14T13:16:27.524Z,305
2016-07-14T13:17:27.446Z,290
2016-07-14T13:18:27.485Z,285
2016-07-14T13:19:27.550Z,275
2016-07-14T13:20:27.479Z,270
2016-07-14T13:21:27.639Z,270
2016-07-14T13:22:27.618Z,270
2016-07-14T13:23:27.515Z,275
2016-07-14T13:24:27.524Z,275
2016-07-14T13:25:27.500Z,280
2016-07-14T13:26:27.493Z,290
2016-07-14T13:27:27.467Z,300
2016-07-14T13:28:27.534Z,310
2016-07-14T13:29:27.517Z,315
2016-07-14T13:30:27.579Z,320
2016-07-14T13:31:27.686Z,315
2016-07-14T13:32:27.531Z,320
2016-07-14T13:33:27.529Z,320
2016-07-14T13:34:27.623Z,290
2016-07-14T13:35:27.514Z,275
2016-07-14T13:36:27.542Z,255
2016-07-14T13:37:28.510Z,235
2016-07-14T13:38:27.488Z,220
2016-07-14T13:39:27.568Z,195
2016-07-14T13:40:27.520Z,185
2016-07-14T13:41:27.569Z,185
2016-07-14T13:42:27.548Z,185
2016-07-14T13:43:27.552Z,175
2016-07-14T13:44:28.360Z,185
2016-07-14T13:45:27.490Z,180
2016-07-14T13:46:27.607Z,180
2016-07-14T13:47:27.530Z,180
2016-07-14T13:48:27.545Z,185
2016-07-14T13:49:27.545Z,190
2016-07-14T13:50:27.524Z,185
2016-07-14T13:51:27.530Z,185
2016-07-14T13:52:27.533Z,190
2016-07-14T13:53:27.692Z,195
2016-07-14T13:54:27.546Z,200
2016-07-14T13:55:27.530Z,200
2016-07-14T13:56:27.819Z,205
2016-07-14T13:57:27.577Z,210
2016-07-14T13:58:27.551Z,215
2016-07-14T13:59:27.699Z,220
2016-07-14T14:00:27.564Z,225
2016-07-14T14:01:27.543Z,235
2016-07-14T14:02:27.871Z,240
2016-07-14T14:03:27.498Z,245
2016-07-14T14:04:28.877Z,255